sensor_id;sensor_type;location;lat;lon;timestamp;P1;durP1;ratioP1;P2;durP2;ratioP2
20657;SDS011;10488;50.846;4.078;2023-04-01T00:00:55;10.35;;;1.95;;
20657;SDS011;10488;50.846;4.078;2023-04-01T00:03:22;10.80;;;2.08;;
20657;SDS011;10488;50.846;4.078;2023-04-01T00:05:49;12.90;;;2.67;;
20657;SDS011;10488;50.846;4.078;2023-04-01T00:08:15;9.05;;;1.75;;
20657;SDS011;10488;50.846;4.078;2023-04-01T00:10:41;6.50;;;1.42;;
20657;SDS011;10488;50.846;4.078;2023-04-01T00:13:07;7.65;;;1.50;;
20657;SDS011;10488;50.846;4.078;2023-04-01T00:15:32;6.05;;;1.55;;
20657;SDS011;10488;50.846;4.078;2023-04-01T00:17:58;5.70;;;1.33;;
20657;SDS011;10488;50.846;4.078;2023-04-01T00:20:25;5.43;;;1.10;;
20657;SDS011;10488;50.846;4.078;2023-04-01T00:22:51;10.75;;;1.95;;
20657;SDS011;10488;50.846;4.078;2023-04-01T00:25:17;11.40;;;1.30;;
20657;SDS011;10488;50.846;4.078;2023-04-01T00:27:43;8.55;;;2.20;;
20657;SDS011;10488;50.846;4.078;2023-04-01T00:30:09;16.67;;;1.73;;
20657;SDS011;10488;50.846;4.078;2023-04-01T00:32:36;5.65;;;1.35;;
20657;SDS011;10488;50.846;4.078;2023-04-01T00:35:02;7.93;;;1.23;;
20657;SDS011;10488;50.846;4.078;2023-04-01T00:37:28;6.30;;;1.38;;
20657;SDS011;10488;50.846;4.078;2023-04-01T00:39:54;9.00;;;1.33;;
20657;SDS011;10488;50.846;4.078;2023-04-01T00:42:20;2.70;;;0.90;;
20657;SDS011;10488;50.846;4.078;2023-04-01T00:44:52;5.88;;;1.50;;
20657;SDS011;10488;50.846;4.078;2023-04-01T00:47:20;4.88;;;1.33;;
20657;SDS011;10488;50.846;4.078;2023-04-01T00:49:48;8.20;;;1.13;;
20657;SDS011;10488;50.846;4.078;2023-04-01T00:52:21;5.55;;;1.05;;
20657;SDS011;10488;50.846;4.078;2023-04-01T00:54:52;5.85;;;1.20;;
20657;SDS011;10488;50.846;4.078;2023-04-01T00:57:24;3.13;;;1.40;;
20657;SDS011;10488;50.846;4.078;2023-04-01T00:59:57;3.42;;;1.10;;
20657;SDS011;10488;50.846;4.078;2023-04-01T01:02:24;1.58;;;1.27;;
20657;SDS011;10488;50.846;4.078;2023-04-01T01:04:49;6.90;;;2.22;;
20657;SDS011;10488;50.846;4.078;2023-04-01T01:20:53;6.65;;;3.03;;
20657;SDS011;10488;50.846;4.078;2023-04-01T01:23:32;9.45;;;3.30;;
20657;SDS011;10488;50.846;4.078;2023-04-01T01:37:37;14.85;;;6.30;;
20657;SDS011;10488;50.846;4.078;2023-04-01T01:40:05;22.90;;;6.82;;
20657;SDS011;10488;50.846;4.078;2023-04-01T01:42:34;13.32;;;6.63;;
20657;SDS011;10488;50.846;4.078;2023-04-01T01:45:03;14.93;;;6.80;;
20657;SDS011;10488;50.846;4.078;2023-04-01T01:47:32;18.90;;;6.95;;
20657;SDS011;10488;50.846;4.078;2023-04-01T01:49:59;12.93;;;6.70;;
20657;SDS011;10488;50.846;4.078;2023-04-01T01:52:26;15.60;;;7.18;;
20657;SDS011;10488;50.846;4.078;2023-04-01T01:54:56;13.93;;;6.75;;
20657;SDS011;10488;50.846;4.078;2023-04-01T01:57:23;13.23;;;5.82;;
20657;SDS011;10488;50.846;4.078;2023-04-01T02:00:04;12.20;;;5.75;;
20657;SDS011;10488;50.846;4.078;2023-04-01T02:02:37;14.20;;;5.63;;
20657;SDS011;10488;50.846;4.078;2023-04-01T02:05:11;14.80;;;5.60;;
20657;SDS011;10488;50.846;4.078;2023-04-01T02:07:43;14.65;;;5.22;;
20657;SDS011;10488;50.846;4.078;2023-04-01T02:10:14;13.75;;;4.85;;
20657;SDS011;10488;50.846;4.078;2023-04-01T02:12:41;15.85;;;4.68;;
20657;SDS011;10488;50.846;4.078;2023-04-01T02:15:09;17.83;;;5.03;;
20657;SDS011;10488;50.846;4.078;2023-04-01T02:17:40;11.82;;;5.45;;
20657;SDS011;10488;50.846;4.078;2023-04-01T02:20:13;10.95;;;5.00;;
20657;SDS011;10488;50.846;4.078;2023-04-01T02:22:43;16.10;;;4.50;;
20657;SDS011;10488;50.846;4.078;2023-04-01T02:25:15;15.95;;;4.85;;
20657;SDS011;10488;50.846;4.078;2023-04-01T02:27:45;14.85;;;5.10;;
20657;SDS011;10488;50.846;4.078;2023-04-01T02:30:13;11.63;;;5.18;;
20657;SDS011;10488;50.846;4.078;2023-04-01T02:32:40;15.98;;;5.28;;
20657;SDS011;10488;50.846;4.078;2023-04-01T02:35:10;15.10;;;5.68;;
20657;SDS011;10488;50.846;4.078;2023-04-01T02:37:38;16.83;;;5.95;;
20657;SDS011;10488;50.846;4.078;2023-04-01T02:40:07;18.17;;;6.82;;
20657;SDS011;10488;50.846;4.078;2023-04-01T02:42:34;18.17;;;6.70;;
20657;SDS011;10488;50.846;4.078;2023-04-01T02:45:00;23.23;;;7.15;;
20657;SDS011;10488;50.846;4.078;2023-04-01T02:47:26;17.02;;;7.07;;
20657;SDS011;10488;50.846;4.078;2023-04-01T02:49:52;22.85;;;8.00;;
20657;SDS011;10488;50.846;4.078;2023-04-01T02:52:29;20.63;;;7.30;;
20657;SDS011;10488;50.846;4.078;2023-04-01T02:54:55;17.20;;;8.35;;
20657;SDS011;10488;50.846;4.078;2023-04-01T02:57:22;21.52;;;7.95;;
20657;SDS011;10488;50.846;4.078;2023-04-01T02:59:48;22.95;;;9.15;;
20657;SDS011;10488;50.846;4.078;2023-04-01T03:02:14;24.90;;;9.43;;
20657;SDS011;10488;50.846;4.078;2023-04-01T03:04:40;17.42;;;8.40;;
20657;SDS011;10488;50.846;4.078;2023-04-01T03:07:06;24.42;;;9.55;;
20657;SDS011;10488;50.846;4.078;2023-04-01T03:09:31;24.33;;;9.32;;
20657;SDS011;10488;50.846;4.078;2023-04-01T03:11:57;26.60;;;9.82;;
20657;SDS011;10488;50.846;4.078;2023-04-01T03:14:23;14.63;;;7.68;;
20657;SDS011;10488;50.846;4.078;2023-04-01T03:16:48;15.70;;;7.80;;
20657;SDS011;10488;50.846;4.078;2023-04-01T03:19:14;21.75;;;7.95;;
20657;SDS011;10488;50.846;4.078;2023-04-01T03:21:40;19.55;;;8.10;;
20657;SDS011;10488;50.846;4.078;2023-04-01T03:24:05;20.67;;;7.15;;
20657;SDS011;10488;50.846;4.078;2023-04-01T03:26:31;22.20;;;6.90;;
20657;SDS011;10488;50.846;4.078;2023-04-01T03:28:57;17.23;;;7.03;;
20657;SDS011;10488;50.846;4.078;2023-04-01T03:31:22;19.13;;;8.05;;
20657;SDS011;10488;50.846;4.078;2023-04-01T03:33:48;21.30;;;7.53;;
20657;SDS011;10488;50.846;4.078;2023-04-01T03:36:14;17.67;;;7.53;;
20657;SDS011;10488;50.846;4.078;2023-04-01T03:38:40;19.20;;;7.45;;
20657;SDS011;10488;50.846;4.078;2023-04-01T03:41:06;18.90;;;6.88;;
20657;SDS011;10488;50.846;4.078;2023-04-01T03:43:32;18.73;;;7.18;;
20657;SDS011;10488;50.846;4.078;2023-04-01T03:45:58;21.50;;;7.50;;
20657;SDS011;10488;50.846;4.078;2023-04-01T03:48:24;15.55;;;6.90;;
20657;SDS011;10488;50.846;4.078;2023-04-01T03:50:50;12.82;;;6.18;;
20657;SDS011;10488;50.846;4.078;2023-04-01T03:53:16;14.27;;;6.60;;
20657;SDS011;10488;50.846;4.078;2023-04-01T03:55:42;14.13;;;7.05;;
20657;SDS011;10488;50.846;4.078;2023-04-01T03:58:08;16.77;;;7.43;;
20657;SDS011;10488;50.846;4.078;2023-04-01T04:00:34;14.73;;;6.68;;
20657;SDS011;10488;50.846;4.078;2023-04-01T04:03:00;15.38;;;7.43;;
20657;SDS011;10488;50.846;4.078;2023-04-01T04:05:26;17.90;;;6.85;;
20657;SDS011;10488;50.846;4.078;2023-04-01T04:07:52;16.90;;;6.47;;
20657;SDS011;10488;50.846;4.078;2023-04-01T04:10:18;14.60;;;6.97;;
20657;SDS011;10488;50.846;4.078;2023-04-01T04:12:44;17.58;;;7.72;;
20657;SDS011;10488;50.846;4.078;2023-04-01T04:15:11;17.50;;;7.05;;
20657;SDS011;10488;50.846;4.078;2023-04-01T04:17:37;18.23;;;6.03;;
20657;SDS011;10488;50.846;4.078;2023-04-01T04:20:03;13.00;;;6.80;;
20657;SDS011;10488;50.846;4.078;2023-04-01T04:22:29;16.15;;;7.15;;
20657;SDS011;10488;50.846;4.078;2023-04-01T04:24:54;16.52;;;7.05;;
20657;SDS011;10488;50.846;4.078;2023-04-01T04:27:20;17.27;;;7.43;;
20657;SDS011;10488;50.846;4.078;2023-04-01T04:29:46;9.88;;;6.30;;
20657;SDS011;10488;50.846;4.078;2023-04-01T04:32:11;11.57;;;6.00;;
20657;SDS011;10488;50.846;4.078;2023-04-01T04:34:37;11.27;;;6.15;;
20657;SDS011;10488;50.846;4.078;2023-04-01T04:37:02;11.80;;;5.88;;
20657;SDS011;10488;50.846;4.078;2023-04-01T04:39:28;14.15;;;6.13;;
20657;SDS011;10488;50.846;4.078;2023-04-01T04:41:54;14.68;;;6.03;;
20657;SDS011;10488;50.846;4.078;2023-04-01T04:44:20;9.43;;;5.03;;
20657;SDS011;10488;50.846;4.078;2023-04-01T04:46:46;10.00;;;5.60;;
20657;SDS011;10488;50.846;4.078;2023-04-01T04:49:11;12.15;;;5.05;;
20657;SDS011;10488;50.846;4.078;2023-04-01T04:51:37;8.32;;;5.40;;
20657;SDS011;10488;50.846;4.078;2023-04-01T04:54:03;10.52;;;5.28;;
20657;SDS011;10488;50.846;4.078;2023-04-01T04:56:30;11.68;;;5.85;;
20657;SDS011;10488;50.846;4.078;2023-04-01T04:58:56;15.18;;;6.38;;
20657;SDS011;10488;50.846;4.078;2023-04-01T05:01:22;13.60;;;6.45;;
20657;SDS011;10488;50.846;4.078;2023-04-01T05:03:48;14.00;;;6.53;;
20657;SDS011;10488;50.846;4.078;2023-04-01T05:06:15;10.85;;;7.25;;
20657;SDS011;10488;50.846;4.078;2023-04-01T05:08:42;17.08;;;7.32;;
20657;SDS011;10488;50.846;4.078;2023-04-01T05:11:10;20.48;;;8.00;;
20657;SDS011;10488;50.846;4.078;2023-04-01T05:13:39;16.77;;;7.57;;
20657;SDS011;10488;50.846;4.078;2023-04-01T05:16:07;14.85;;;7.82;;
20657;SDS011;10488;50.846;4.078;2023-04-01T05:18:37;19.17;;;8.27;;
20657;SDS011;10488;50.846;4.078;2023-04-01T05:21:03;16.02;;;8.10;;
20657;SDS011;10488;50.846;4.078;2023-04-01T05:23:30;18.80;;;9.32;;
20657;SDS011;10488;50.846;4.078;2023-04-01T05:25:57;16.95;;;9.35;;
20657;SDS011;10488;50.846;4.078;2023-04-01T05:28:22;21.48;;;11.75;;
20657;SDS011;10488;50.846;4.078;2023-04-01T05:30:48;26.05;;;12.10;;
20657;SDS011;10488;50.846;4.078;2023-04-01T05:33:14;24.17;;;11.30;;
20657;SDS011;10488;50.846;4.078;2023-04-01T05:35:40;20.50;;;10.55;;
20657;SDS011;10488;50.846;4.078;2023-04-01T05:38:06;18.35;;;10.20;;
20657;SDS011;10488;50.846;4.078;2023-04-01T05:40:32;24.52;;;12.18;;
20657;SDS011;10488;50.846;4.078;2023-04-01T05:42:58;25.83;;;11.77;;
20657;SDS011;10488;50.846;4.078;2023-04-01T05:45:24;22.25;;;10.55;;
20657;SDS011;10488;50.846;4.078;2023-04-01T05:47:50;23.05;;;10.43;;
20657;SDS011;10488;50.846;4.078;2023-04-01T05:50:16;17.58;;;9.60;;
20657;SDS011;10488;50.846;4.078;2023-04-01T05:52:41;24.17;;;11.40;;
20657;SDS011;10488;50.846;4.078;2023-04-01T05:55:07;18.23;;;10.20;;
20657;SDS011;10488;50.846;4.078;2023-04-01T05:57:33;23.02;;;11.02;;
20657;SDS011;10488;50.846;4.078;2023-04-01T05:59:59;17.67;;;9.70;;
20657;SDS011;10488;50.846;4.078;2023-04-01T06:02:25;21.58;;;10.00;;
20657;SDS011;10488;50.846;4.078;2023-04-01T06:04:53;21.30;;;11.90;;
20657;SDS011;10488;50.846;4.078;2023-04-01T06:07:31;19.92;;;10.90;;
20657;SDS011;10488;50.846;4.078;2023-04-01T06:09:57;24.38;;;11.90;;
20657;SDS011;10488;50.846;4.078;2023-04-01T06:12:32;19.52;;;10.20;;
20657;SDS011;10488;50.846;4.078;2023-04-01T06:20:52;20.92;;;10.48;;
20657;SDS011;10488;50.846;4.078;2023-04-01T06:26:39;23.27;;;11.57;;
20657;SDS011;10488;50.846;4.078;2023-04-01T06:31:47;16.23;;;9.07;;
20657;SDS011;10488;50.846;4.078;2023-04-01T06:45:10;16.05;;;8.13;;
20657;SDS011;10488;50.846;4.078;2023-04-01T06:48:20;13.55;;;7.50;;
20657;SDS011;10488;50.846;4.078;2023-04-01T06:56:23;13.52;;;6.68;;
20657;SDS011;10488;50.846;4.078;2023-04-01T07:01:38;13.30;;;6.63;;
20657;SDS011;10488;50.846;4.078;2023-04-01T07:04:06;14.38;;;6.93;;
20657;SDS011;10488;50.846;4.078;2023-04-01T07:06:36;13.70;;;6.15;;
20657;SDS011;10488;50.846;4.078;2023-04-01T07:09:14;11.02;;;6.60;;
20657;SDS011;10488;50.846;4.078;2023-04-01T07:11:44;10.85;;;6.55;;
20657;SDS011;10488;50.846;4.078;2023-04-01T07:14:16;13.70;;;7.05;;
20657;SDS011;10488;50.846;4.078;2023-04-01T07:22:56;9.80;;;5.57;;
20657;SDS011;10488;50.846;4.078;2023-04-01T07:25:17;12.35;;;6.25;;
20657;SDS011;10488;50.846;4.078;2023-04-01T07:27:50;11.27;;;6.25;;
20657;SDS011;10488;50.846;4.078;2023-04-01T07:30:22;9.60;;;5.47;;
20657;SDS011;10488;50.846;4.078;2023-04-01T07:33:04;5.88;;;4.00;;
20657;SDS011;10488;50.846;4.078;2023-04-01T07:35:54;5.45;;;4.20;;
20657;SDS011;10488;50.846;4.078;2023-04-01T07:52:43;5.68;;;3.60;;
20657;SDS011;10488;50.846;4.078;2023-04-01T08:00:54;4.40;;;3.05;;
20657;SDS011;10488;50.846;4.078;2023-04-01T08:06:06;2.90;;;2.60;;
20657;SDS011;10488;50.846;4.078;2023-04-01T08:08:46;3.70;;;2.53;;
20657;SDS011;10488;50.846;4.078;2023-04-01T08:19:10;3.53;;;1.90;;
20657;SDS011;10488;50.846;4.078;2023-04-01T08:21:54;1.67;;;1.40;;
20657;SDS011;10488;50.846;4.078;2023-04-01T08:26:55;3.25;;;1.88;;
20657;SDS011;10488;50.846;4.078;2023-04-01T08:29:33;5.55;;;2.33;;
20657;SDS011;10488;50.846;4.078;2023-04-01T08:32:18;4.30;;;1.92;;
20657;SDS011;10488;50.846;4.078;2023-04-01T08:37:41;4.75;;;1.95;;
20657;SDS011;10488;50.846;4.078;2023-04-01T08:43:30;3.58;;;2.75;;
20657;SDS011;10488;50.846;4.078;2023-04-01T09:02:23;3.67;;;2.47;;
20657;SDS011;10488;50.846;4.078;2023-04-01T09:11:04;5.00;;;1.90;;
20657;SDS011;10488;50.846;4.078;2023-04-01T09:16:18;3.08;;;2.30;;
20657;SDS011;10488;50.846;4.078;2023-04-01T09:18:59;6.50;;;2.40;;
20657;SDS011;10488;50.846;4.078;2023-04-01T10:11:37;3.38;;;1.75;;
20657;SDS011;10488;50.846;4.078;2023-04-01T10:36:41;3.03;;;2.17;;
20657;SDS011;10488;50.846;4.078;2023-04-01T10:39:13;2.65;;;1.95;;
20657;SDS011;10488;50.846;4.078;2023-04-01T11:15:53;3.25;;;1.70;;
20657;SDS011;10488;50.846;4.078;2023-04-01T11:18:31;3.33;;;2.35;;
20657;SDS011;10488;50.846;4.078;2023-04-01T11:26:33;2.00;;;1.40;;
20657;SDS011;10488;50.846;4.078;2023-04-01T11:29:14;1.83;;;1.58;;
20657;SDS011;10488;50.846;4.078;2023-04-01T11:40:35;3.40;;;2.33;;
20657;SDS011;10488;50.846;4.078;2023-04-01T11:56:52;4.82;;;3.58;;
20657;SDS011;10488;50.846;4.078;2023-04-01T11:59:43;7.72;;;3.90;;
20657;SDS011;10488;50.846;4.078;2023-04-01T12:10:26;7.70;;;3.92;;
20657;SDS011;10488;50.846;4.078;2023-04-01T12:13:07;4.07;;;3.03;;
20657;SDS011;10488;50.846;4.078;2023-04-01T12:24:47;7.20;;;4.35;;
20657;SDS011;10488;50.846;4.078;2023-04-01T12:33:23;5.80;;;3.83;;
20657;SDS011;10488;50.846;4.078;2023-04-01T12:49:43;6.90;;;4.38;;
20657;SDS011;10488;50.846;4.078;2023-04-01T12:52:25;5.07;;;3.75;;
20657;SDS011;10488;50.846;4.078;2023-04-01T12:55:13;4.00;;;3.08;;
20657;SDS011;10488;50.846;4.078;2023-04-01T13:20:37;3.70;;;3.35;;
20657;SDS011;10488;50.846;4.078;2023-04-01T13:23:36;4.75;;;2.75;;
20657;SDS011;10488;50.846;4.078;2023-04-01T13:26:22;3.28;;;2.30;;
20657;SDS011;10488;50.846;4.078;2023-04-01T13:29:06;3.53;;;2.30;;
20657;SDS011;10488;50.846;4.078;2023-04-01T13:40:13;4.30;;;3.08;;
20657;SDS011;10488;50.846;4.078;2023-04-01T14:02:17;1.73;;;1.48;;
20657;SDS011;10488;50.846;4.078;2023-04-01T14:12:42;1.50;;;1.40;;
20657;SDS011;10488;50.846;4.078;2023-04-01T14:39:06;2.13;;;1.35;;
20657;SDS011;10488;50.846;4.078;2023-04-01T14:50:39;4.38;;;1.85;;
20657;SDS011;10488;50.846;4.078;2023-04-01T14:55:57;0.50;;;0.50;;
20657;SDS011;10488;50.846;4.078;2023-04-01T14:58:25;1.30;;;0.70;;
20657;SDS011;10488;50.846;4.078;2023-04-01T15:03:32;0.85;;;0.85;;
20657;SDS011;10488;50.846;4.078;2023-04-01T15:17:05;3.65;;;1.00;;
20657;SDS011;10488;50.846;4.078;2023-04-01T15:31:14;6.38;;;4.05;;
20657;SDS011;10488;50.846;4.078;2023-04-01T15:42:11;4.28;;;1.70;;
20657;SDS011;10488;50.846;4.078;2023-04-01T15:47:53;1.95;;;0.98;;
20657;SDS011;10488;50.846;4.078;2023-04-01T15:53:37;3.42;;;1.00;;
20657;SDS011;10488;50.846;4.078;2023-04-01T15:59:11;1.48;;;0.80;;
20657;SDS011;10488;50.846;4.078;2023-04-01T16:07:08;3.28;;;1.85;;
20657;SDS011;10488;50.846;4.078;2023-04-01T16:15:59;3.08;;;1.88;;
20657;SDS011;10488;50.846;4.078;2023-04-01T16:23:59;7.85;;;2.90;;
20657;SDS011;10488;50.846;4.078;2023-04-01T16:29:27;2.63;;;2.30;;
20657;SDS011;10488;50.846;4.078;2023-04-01T16:32:23;3.03;;;1.80;;
20657;SDS011;10488;50.846;4.078;2023-04-01T16:37:31;3.25;;;2.00;;
20657;SDS011;10488;50.846;4.078;2023-04-01T16:40:13;3.08;;;2.55;;
20657;SDS011;10488;50.846;4.078;2023-04-01T16:43:13;2.88;;;2.17;;
20657;SDS011;10488;50.846;4.078;2023-04-01T16:51:37;4.45;;;1.63;;
20657;SDS011;10488;50.846;4.078;2023-04-01T16:57:02;3.10;;;1.35;;
20657;SDS011;10488;50.846;4.078;2023-04-01T17:02:23;2.08;;;1.50;;
20657;SDS011;10488;50.846;4.078;2023-04-01T17:05:00;3.15;;;2.05;;
20657;SDS011;10488;50.846;4.078;2023-04-01T17:10:29;4.75;;;2.55;;
20657;SDS011;10488;50.846;4.078;2023-04-01T17:18:32;4.65;;;2.67;;
20657;SDS011;10488;50.846;4.078;2023-04-01T17:23:57;4.35;;;3.20;;
20657;SDS011;10488;50.846;4.078;2023-04-01T17:44:41;5.45;;;3.55;;
20657;SDS011;10488;50.846;4.078;2023-04-01T17:50:20;7.28;;;5.47;;
20657;SDS011;10488;50.846;4.078;2023-04-01T17:52:57;10.25;;;7.38;;
20657;SDS011;10488;50.846;4.078;2023-04-01T17:55:38;7.10;;;4.28;;
20657;SDS011;10488;50.846;4.078;2023-04-01T18:03:55;4.75;;;3.05;;
20657;SDS011;10488;50.846;4.078;2023-04-01T18:09:24;4.57;;;2.70;;
20657;SDS011;10488;50.846;4.078;2023-04-01T18:17:18;5.55;;;3.10;;
20657;SDS011;10488;50.846;4.078;2023-04-01T18:25:34;7.45;;;4.68;;
20657;SDS011;10488;50.846;4.078;2023-04-01T18:28:19;6.68;;;4.38;;
20657;SDS011;10488;50.846;4.078;2023-04-01T18:30:57;6.90;;;3.70;;
20657;SDS011;10488;50.846;4.078;2023-04-01T18:39:02;7.57;;;4.63;;
20657;SDS011;10488;50.846;4.078;2023-04-01T18:41:53;7.43;;;4.05;;
20657;SDS011;10488;50.846;4.078;2023-04-01T18:47:34;10.88;;;5.97;;
20657;SDS011;10488;50.846;4.078;2023-04-01T18:52:57;6.55;;;5.20;;
20657;SDS011;10488;50.846;4.078;2023-04-01T18:55:40;10.80;;;5.57;;
20657;SDS011;10488;50.846;4.078;2023-04-01T19:01:11;7.65;;;5.40;;
20657;SDS011;10488;50.846;4.078;2023-04-01T19:08:51;8.10;;;5.25;;
20657;SDS011;10488;50.846;4.078;2023-04-01T19:11:36;13.38;;;7.28;;
20657;SDS011;10488;50.846;4.078;2023-04-01T19:20:24;19.23;;;8.93;;
20657;SDS011;10488;50.846;4.078;2023-04-01T19:31:04;22.13;;;12.02;;
20657;SDS011;10488;50.846;4.078;2023-04-01T19:39:32;23.48;;;13.40;;
20657;SDS011;10488;50.846;4.078;2023-04-01T19:45:32;34.15;;;14.55;;
20657;SDS011;10488;50.846;4.078;2023-04-01T19:48:26;30.85;;;14.98;;
20657;SDS011;10488;50.846;4.078;2023-04-01T19:51:13;30.75;;;13.23;;
20657;SDS011;10488;50.846;4.078;2023-04-01T19:56:43;32.95;;;12.82;;
20657;SDS011;10488;50.846;4.078;2023-04-01T19:59:18;35.30;;;14.10;;
20657;SDS011;10488;50.846;4.078;2023-04-01T20:09:49;32.72;;;14.57;;
20657;SDS011;10488;50.846;4.078;2023-04-01T20:12:32;32.15;;;14.20;;
20657;SDS011;10488;50.846;4.078;2023-04-01T20:15:01;32.58;;;14.32;;
20657;SDS011;10488;50.846;4.078;2023-04-01T20:24:56;33.15;;;14.48;;
20657;SDS011;10488;50.846;4.078;2023-04-01T20:27:27;32.63;;;14.05;;
20657;SDS011;10488;50.846;4.078;2023-04-01T20:41:12;31.15;;;14.95;;
20657;SDS011;10488;50.846;4.078;2023-04-01T20:46:52;44.13;;;15.23;;
20657;SDS011;10488;50.846;4.078;2023-04-01T20:52:41;41.03;;;16.25;;
20657;SDS011;10488;50.846;4.078;2023-04-01T20:55:29;40.35;;;16.67;;
20657;SDS011;10488;50.846;4.078;2023-04-01T20:58:15;43.65;;;17.42;;
20657;SDS011;10488;50.846;4.078;2023-04-01T21:05:00;47.92;;;19.73;;
20657;SDS011;10488;50.846;4.078;2023-04-01T21:07:08;53.10;;;20.48;;
20657;SDS011;10488;50.846;4.078;2023-04-01T21:12:30;48.42;;;22.13;;
20657;SDS011;10488;50.846;4.078;2023-04-01T21:15:21;49.08;;;21.75;;
20657;SDS011;10488;50.846;4.078;2023-04-01T21:21:13;51.97;;;23.42;;
20657;SDS011;10488;50.846;4.078;2023-04-01T21:32:14;58.97;;;25.55;;
20657;SDS011;10488;50.846;4.078;2023-04-01T21:34:48;49.75;;;25.25;;
20657;SDS011;10488;50.846;4.078;2023-04-01T21:51:52;52.63;;;24.65;;
20657;SDS011;10488;50.846;4.078;2023-04-01T22:00:08;59.17;;;25.63;;
20657;SDS011;10488;50.846;4.078;2023-04-01T22:06:00;55.25;;;27.08;;
20657;SDS011;10488;50.846;4.078;2023-04-01T22:08:41;56.13;;;25.63;;
20657;SDS011;10488;50.846;4.078;2023-04-01T22:16:59;60.72;;;26.85;;
20657;SDS011;10488;50.846;4.078;2023-04-01T22:22:31;61.38;;;27.80;;
20657;SDS011;10488;50.846;4.078;2023-04-01T22:25:25;59.28;;;28.67;;
20657;SDS011;10488;50.846;4.078;2023-04-01T22:28:08;70.53;;;27.27;;
20657;SDS011;10488;50.846;4.078;2023-04-01T22:44:16;54.55;;;27.48;;
20657;SDS011;10488;50.846;4.078;2023-04-01T22:52:46;51.05;;;26.35;;
20657;SDS011;10488;50.846;4.078;2023-04-01T22:55:17;57.53;;;27.17;;
20657;SDS011;10488;50.846;4.078;2023-04-01T22:57:53;63.92;;;28.15;;
20657;SDS011;10488;50.846;4.078;2023-04-01T23:05:51;55.15;;;28.08;;
20657;SDS011;10488;50.846;4.078;2023-04-01T23:11:09;60.53;;;29.80;;
20657;SDS011;10488;50.846;4.078;2023-04-01T23:13:47;58.80;;;27.80;;
20657;SDS011;10488;50.846;4.078;2023-04-01T23:16:20;46.72;;;26.15;;
20657;SDS011;10488;50.846;4.078;2023-04-01T23:18:57;57.65;;;26.95;;
20657;SDS011;10488;50.846;4.078;2023-04-01T23:21:39;52.22;;;26.08;;
20657;SDS011;10488;50.846;4.078;2023-04-01T23:24:21;47.70;;;24.23;;
20657;SDS011;10488;50.846;4.078;2023-04-01T23:26:57;42.00;;;24.05;;
20657;SDS011;10488;50.846;4.078;2023-04-01T23:29:26;39.67;;;21.85;;
20657;SDS011;10488;50.846;4.078;2023-04-01T23:32:02;43.83;;;22.08;;
20657;SDS011;10488;50.846;4.078;2023-04-01T23:34:34;39.40;;;21.88;;
20657;SDS011;10488;50.846;4.078;2023-04-01T23:37:04;41.95;;;23.33;;
20657;SDS011;10488;50.846;4.078;2023-04-01T23:39:40;39.97;;;23.70;;
20657;SDS011;10488;50.846;4.078;2023-04-01T23:42:18;38.03;;;22.98;;
20657;SDS011;10488;50.846;4.078;2023-04-01T23:44:55;41.17;;;22.90;;
20657;SDS011;10488;50.846;4.078;2023-04-01T23:47:29;41.78;;;23.40;;
20657;SDS011;10488;50.846;4.078;2023-04-01T23:52:36;33.88;;;22.35;;
20657;SDS011;10488;50.846;4.078;2023-04-01T23:55:22;32.75;;;21.23;;
